sensor_id;sensor_type;location;lat;lon;timestamp;temperature;humidity
75091;DHT22;63674;48.048;8.306;2023-06-05T00:01:53;6.90;99.90
75091;DHT22;63674;48.048;8.306;2023-06-05T00:04:22;6.90;99.90
75091;DHT22;63674;48.048;8.306;2023-06-05T00:06:51;6.90;99.90
75091;DHT22;63674;48.048;8.306;2023-06-05T00:09:20;6.80;99.90
75091;DHT22;63674;48.048;8.306;2023-06-05T00:11:49;6.80;99.90
75091;DHT22;63674;48.048;8.306;2023-06-05T00:14:17;6.80;99.90
75091;DHT22;63674;48.048;8.306;2023-06-05T00:16:46;6.70;99.90
75091;DHT22;63674;48.048;8.306;2023-06-05T00:19:18;6.70;99.90
75091;DHT22;63674;48.048;8.306;2023-06-05T00:21:47;6.60;99.90
75091;DHT22;63674;48.048;8.306;2023-06-05T00:24:17;6.60;99.90
75091;DHT22;63674;48.048;8.306;2023-06-05T00:26:46;6.60;99.90
75091;DHT22;63674;48.048;8.306;2023-06-05T00:29:15;6.60;99.90
75091;DHT22;63674;48.048;8.306;2023-06-05T00:31:43;6.50;99.90
75091;DHT22;63674;48.048;8.306;2023-06-05T00:34:13;6.50;99.90
75091;DHT22;63674;48.048;8.306;2023-06-05T00:36:44;6.40;99.90
75091;DHT22;63674;48.048;8.306;2023-06-05T00:39:18;6.40;99.90
75091;DHT22;63674;48.048;8.306;2023-06-05T00:41:47;6.40;99.90
75091;DHT22;63674;48.048;8.306;2023-06-05T00:44:18;6.40;99.90
75091;DHT22;63674;48.048;8.306;2023-06-05T00:46:48;6.40;99.90
75091;DHT22;63674;48.048;8.306;2023-06-05T00:49:18;6.40;99.90
75091;DHT22;63674;48.048;8.306;2023-06-05T00:51:48;6.40;99.90
75091;DHT22;63674;48.048;8.306;2023-06-05T00:54:17;6.30;99.90
75091;DHT22;63674;48.048;8.306;2023-06-05T00:56:48;6.30;99.90
75091;DHT22;63674;48.048;8.306;2023-06-05T00:59:20;6.20;99.90
75091;DHT22;63674;48.048;8.306;2023-06-05T01:01:49;6.20;99.90
75091;DHT22;63674;48.048;8.306;2023-06-05T01:04:19;6.10;99.90
75091;DHT22;63674;48.048;8.306;2023-06-05T01:06:51;6.10;99.90
75091;DHT22;63674;48.048;8.306;2023-06-05T01:09:20;6.10;99.90
75091;DHT22;63674;48.048;8.306;2023-06-05T01:11:53;6.10;99.90
75091;DHT22;63674;48.048;8.306;2023-06-05T01:14:28;6.10;99.90
75091;DHT22;63674;48.048;8.306;2023-06-05T01:17:01;6.00;99.90
75091;DHT22;63674;48.048;8.306;2023-06-05T01:19:31;6.00;99.90
75091;DHT22;63674;48.048;8.306;2023-06-05T01:22:01;6.00;99.90
75091;DHT22;63674;48.048;8.306;2023-06-05T01:24:31;6.00;99.90
75091;DHT22;63674;48.048;8.306;2023-06-05T01:27:05;5.90;99.90
75091;DHT22;63674;48.048;8.306;2023-06-05T01:29:42;5.90;99.90
75091;DHT22;63674;48.048;8.306;2023-06-05T01:32:21;5.80;99.90
75091;DHT22;63674;48.048;8.306;2023-06-05T01:34:58;5.80;99.90
75091;DHT22;63674;48.048;8.306;2023-06-05T01:37:28;5.80;99.90
75091;DHT22;63674;48.048;8.306;2023-06-05T01:40:07;5.70;99.90
75091;DHT22;63674;48.048;8.306;2023-06-05T01:42:36;5.70;99.90
75091;DHT22;63674;48.048;8.306;2023-06-05T01:45:08;5.70;99.90
75091;DHT22;63674;48.048;8.306;2023-06-05T01:47:38;5.70;99.90
75091;DHT22;63674;48.048;8.306;2023-06-05T01:50:09;5.70;99.90
75091;DHT22;63674;48.048;8.306;2023-06-05T01:52:40;5.60;99.90
75091;DHT22;63674;48.048;8.306;2023-06-05T01:55:16;5.60;99.90
75091;DHT22;63674;48.048;8.306;2023-06-05T01:57:47;5.50;99.90
75091;DHT22;63674;48.048;8.306;2023-06-05T02:00:16;5.50;99.90
75091;DHT22;63674;48.048;8.306;2023-06-05T02:02:46;5.40;99.90
75091;DHT22;63674;48.048;8.306;2023-06-05T02:05:17;5.50;99.90
75091;DHT22;63674;48.048;8.306;2023-06-05T02:07:49;5.40;99.90
75091;DHT22;63674;48.048;8.306;2023-06-05T02:10:22;5.40;99.90
75091;DHT22;63674;48.048;8.306;2023-06-05T02:12:52;5.40;99.90
75091;DHT22;63674;48.048;8.306;2023-06-05T02:15:20;5.40;99.90
75091;DHT22;63674;48.048;8.306;2023-06-05T02:17:50;5.30;99.90
75091;DHT22;63674;48.048;8.306;2023-06-05T02:20:23;5.40;99.90
75091;DHT22;63674;48.048;8.306;2023-06-05T02:22:53;5.30;99.90
75091;DHT22;63674;48.048;8.306;2023-06-05T02:25:23;5.30;99.90
75091;DHT22;63674;48.048;8.306;2023-06-05T02:27:53;5.20;99.90
75091;DHT22;63674;48.048;8.306;2023-06-05T02:30:22;5.30;99.90
75091;DHT22;63674;48.048;8.306;2023-06-05T02:32:51;5.20;99.90
75091;DHT22;63674;48.048;8.306;2023-06-05T02:35:24;5.10;99.90
75091;DHT22;63674;48.048;8.306;2023-06-05T02:37:53;5.10;99.90
75091;DHT22;63674;48.048;8.306;2023-06-05T02:40:25;5.10;99.90
75091;DHT22;63674;48.048;8.306;2023-06-05T02:42:54;5.00;99.90
75091;DHT22;63674;48.048;8.306;2023-06-05T02:45:22;5.00;99.90
75091;DHT22;63674;48.048;8.306;2023-06-05T02:47:51;5.00;99.90
75091;DHT22;63674;48.048;8.306;2023-06-05T02:50:20;5.00;99.90
75091;DHT22;63674;48.048;8.306;2023-06-05T02:52:48;5.10;99.90
75091;DHT22;63674;48.048;8.306;2023-06-05T02:55:17;5.00;99.90
75091;DHT22;63674;48.048;8.306;2023-06-05T02:57:48;5.00;99.90
75091;DHT22;63674;48.048;8.306;2023-06-05T03:00:17;4.90;99.90
75091;DHT22;63674;48.048;8.306;2023-06-05T03:02:46;4.90;99.90
75091;DHT22;63674;48.048;8.306;2023-06-05T03:05:17;4.80;99.90
75091;DHT22;63674;48.048;8.306;2023-06-05T03:07:52;4.80;99.90
75091;DHT22;63674;48.048;8.306;2023-06-05T03:10:21;4.80;99.90
75091;DHT22;63674;48.048;8.306;2023-06-05T03:12:51;4.80;99.90
75091;DHT22;63674;48.048;8.306;2023-06-05T03:15:20;4.90;99.90
75091;DHT22;63674;48.048;8.306;2023-06-05T03:17:48;4.90;99.90
75091;DHT22;63674;48.048;8.306;2023-06-05T03:20:18;4.80;99.90
75091;DHT22;63674;48.048;8.306;2023-06-05T03:22:46;4.80;99.90
75091;DHT22;63674;48.048;8.306;2023-06-05T03:25:15;4.80;99.90
75091;DHT22;63674;48.048;8.306;2023-06-05T03:27:44;4.80;99.90
75091;DHT22;63674;48.048;8.306;2023-06-05T03:30:14;4.70;99.90
75091;DHT22;63674;48.048;8.306;2023-06-05T03:32:47;4.70;99.90
75091;DHT22;63674;48.048;8.306;2023-06-05T03:35:16;4.70;99.90
75091;DHT22;63674;48.048;8.306;2023-06-05T03:37:45;4.60;99.90
75091;DHT22;63674;48.048;8.306;2023-06-05T03:40:14;4.70;99.90
75091;DHT22;63674;48.048;8.306;2023-06-05T03:42:42;4.60;99.90
75091;DHT22;63674;48.048;8.306;2023-06-05T03:45:12;4.60;99.90
75091;DHT22;63674;48.048;8.306;2023-06-05T03:47:42;4.60;99.90
75091;DHT22;63674;48.048;8.306;2023-06-05T03:50:16;4.70;99.90
75091;DHT22;63674;48.048;8.306;2023-06-05T03:52:44;4.60;99.90
75091;DHT22;63674;48.048;8.306;2023-06-05T03:55:19;4.70;99.90
75091;DHT22;63674;48.048;8.306;2023-06-05T03:57:48;4.70;99.90
75091;DHT22;63674;48.048;8.306;2023-06-05T04:00:18;4.60;99.90
75091;DHT22;63674;48.048;8.306;2023-06-05T04:02:47;4.60;99.90
75091;DHT22;63674;48.048;8.306;2023-06-05T04:05:17;4.60;99.90
75091;DHT22;63674;48.048;8.306;2023-06-05T04:07:45;4.70;99.90
75091;DHT22;63674;48.048;8.306;2023-06-05T04:10:14;4.60;99.90
75091;DHT22;63674;48.048;8.306;2023-06-05T04:12:42;4.70;99.90
75091;DHT22;63674;48.048;8.306;2023-06-05T04:15:11;4.80;99.90
75091;DHT22;63674;48.048;8.306;2023-06-05T04:17:41;4.80;99.90
75091;DHT22;63674;48.048;8.306;2023-06-05T04:20:11;4.80;99.90
75091;DHT22;63674;48.048;8.306;2023-06-05T04:22:42;4.80;99.90
75091;DHT22;63674;48.048;8.306;2023-06-05T04:25:11;4.80;99.90
75091;DHT22;63674;48.048;8.306;2023-06-05T04:27:42;4.90;99.90
75091;DHT22;63674;48.048;8.306;2023-06-05T04:30:12;4.90;99.90
75091;DHT22;63674;48.048;8.306;2023-06-05T04:32:43;4.90;99.90
75091;DHT22;63674;48.048;8.306;2023-06-05T04:35:20;5.00;99.90
75091;DHT22;63674;48.048;8.306;2023-06-05T04:37:50;4.90;99.90
75091;DHT22;63674;48.048;8.306;2023-06-05T04:40:18;5.00;99.90
75091;DHT22;63674;48.048;8.306;2023-06-05T04:42:47;5.00;99.90
75091;DHT22;63674;48.048;8.306;2023-06-05T04:45:16;5.00;99.90
75091;DHT22;63674;48.048;8.306;2023-06-05T04:47:47;5.00;99.90
75091;DHT22;63674;48.048;8.306;2023-06-05T04:50:22;5.10;99.90
75091;DHT22;63674;48.048;8.306;2023-06-05T04:52:52;5.10;99.90
75091;DHT22;63674;48.048;8.306;2023-06-05T04:55:21;5.10;99.90
75091;DHT22;63674;48.048;8.306;2023-06-05T04:57:50;5.10;99.90
75091;DHT22;63674;48.048;8.306;2023-06-05T05:00:20;5.10;99.90
75091;DHT22;63674;48.048;8.306;2023-06-05T05:02:52;5.20;99.90
75091;DHT22;63674;48.048;8.306;2023-06-05T05:05:21;5.30;99.90
75091;DHT22;63674;48.048;8.306;2023-06-05T05:07:50;5.40;99.90
75091;DHT22;63674;48.048;8.306;2023-06-05T05:10:22;5.40;99.90
75091;DHT22;63674;48.048;8.306;2023-06-05T05:12:51;5.50;99.90
75091;DHT22;63674;48.048;8.306;2023-06-05T05:15:20;5.50;99.90
75091;DHT22;63674;48.048;8.306;2023-06-05T05:17:48;5.60;99.90
75091;DHT22;63674;48.048;8.306;2023-06-05T05:20:20;5.70;99.90
75091;DHT22;63674;48.048;8.306;2023-06-05T05:22:49;5.80;99.90
75091;DHT22;63674;48.048;8.306;2023-06-05T05:25:17;5.80;99.90
75091;DHT22;63674;48.048;8.306;2023-06-05T05:27:46;5.90;99.90
75091;DHT22;63674;48.048;8.306;2023-06-05T05:30:14;6.00;99.90
75091;DHT22;63674;48.048;8.306;2023-06-05T05:32:43;6.00;99.90
75091;DHT22;63674;48.048;8.306;2023-06-05T05:35:12;6.10;99.90
75091;DHT22;63674;48.048;8.306;2023-06-05T05:37:42;6.10;99.90
75091;DHT22;63674;48.048;8.306;2023-06-05T05:40:12;6.10;99.90
75091;DHT22;63674;48.048;8.306;2023-06-05T05:42:42;6.20;99.90
75091;DHT22;63674;48.048;8.306;2023-06-05T05:45:11;6.30;99.90
75091;DHT22;63674;48.048;8.306;2023-06-05T05:47:40;6.50;99.90
75091;DHT22;63674;48.048;8.306;2023-06-05T05:50:09;6.60;99.90
75091;DHT22;63674;48.048;8.306;2023-06-05T05:52:38;6.80;99.90
75091;DHT22;63674;48.048;8.306;2023-06-05T05:55:08;6.90;99.90
75091;DHT22;63674;48.048;8.306;2023-06-05T05:57:39;7.10;99.90
75091;DHT22;63674;48.048;8.306;2023-06-05T06:00:08;7.20;99.90
75091;DHT22;63674;48.048;8.306;2023-06-05T06:02:39;7.40;99.90
75091;DHT22;63674;48.048;8.306;2023-06-05T06:05:09;7.40;99.90
75091;DHT22;63674;48.048;8.306;2023-06-05T06:07:39;7.60;99.90
75091;DHT22;63674;48.048;8.306;2023-06-05T06:10:14;7.70;99.90
75091;DHT22;63674;48.048;8.306;2023-06-05T06:12:43;7.90;99.90
75091;DHT22;63674;48.048;8.306;2023-06-05T06:15:13;8.20;99.90
75091;DHT22;63674;48.048;8.306;2023-06-05T06:17:41;8.40;99.90
75091;DHT22;63674;48.048;8.306;2023-06-05T06:20:32;8.80;99.90
75091;DHT22;63674;48.048;8.306;2023-06-05T06:23:02;9.20;99.90
75091;DHT22;63674;48.048;8.306;2023-06-05T06:25:33;9.60;99.90
75091;DHT22;63674;48.048;8.306;2023-06-05T06:28:01;10.10;99.90
75091;DHT22;63674;48.048;8.306;2023-06-05T06:30:30;10.60;99.90
75091;DHT22;63674;48.048;8.306;2023-06-05T06:33:01;11.10;99.90
75091;DHT22;63674;48.048;8.306;2023-06-05T06:35:31;11.50;99.90
75091;DHT22;63674;48.048;8.306;2023-06-05T06:38:00;11.90;99.90
75091;DHT22;63674;48.048;8.306;2023-06-05T06:40:31;12.30;99.90
75091;DHT22;63674;48.048;8.306;2023-06-05T06:43:00;12.80;99.90
75091;DHT22;63674;48.048;8.306;2023-06-05T06:45:28;13.20;99.90
75091;DHT22;63674;48.048;8.306;2023-06-05T06:47:57;13.50;99.90
75091;DHT22;63674;48.048;8.306;2023-06-05T06:50:32;13.70;99.90
75091;DHT22;63674;48.048;8.306;2023-06-05T06:53:01;14.00;99.90
75091;DHT22;63674;48.048;8.306;2023-06-05T06:55:31;14.50;99.90
75091;DHT22;63674;48.048;8.306;2023-06-05T06:58:00;14.90;99.90
75091;DHT22;63674;48.048;8.306;2023-06-05T07:00:29;15.30;99.90
75091;DHT22;63674;48.048;8.306;2023-06-05T07:02:58;15.50;99.90
75091;DHT22;63674;48.048;8.306;2023-06-05T07:05:26;15.90;99.90
75091;DHT22;63674;48.048;8.306;2023-06-05T07:07:55;16.30;99.90
75091;DHT22;63674;48.048;8.306;2023-06-05T07:10:28;16.60;99.90
75091;DHT22;63674;48.048;8.306;2023-06-05T07:12:58;16.90;99.90
75091;DHT22;63674;48.048;8.306;2023-06-05T07:15:27;17.30;99.90
75091;DHT22;63674;48.048;8.306;2023-06-05T07:17:55;17.90;99.90
75091;DHT22;63674;48.048;8.306;2023-06-05T07:20:24;17.90;99.90
75091;DHT22;63674;48.048;8.306;2023-06-05T07:22:53;18.30;92.90
75091;DHT22;63674;48.048;8.306;2023-06-05T07:25:21;18.70;99.30
75091;DHT22;63674;48.048;8.306;2023-06-05T07:27:52;19.30;99.00
75091;DHT22;63674;48.048;8.306;2023-06-05T07:30:22;19.60;97.30
75091;DHT22;63674;48.048;8.306;2023-06-05T07:32:50;19.80;78.80
75091;DHT22;63674;48.048;8.306;2023-06-05T07:35:19;19.90;72.10
75091;DHT22;63674;48.048;8.306;2023-06-05T07:37:47;20.20;67.50
75091;DHT22;63674;48.048;8.306;2023-06-05T07:40:16;20.50;72.10
75091;DHT22;63674;48.048;8.306;2023-06-05T07:42:46;20.60;78.10
75091;DHT22;63674;48.048;8.306;2023-06-05T07:45:14;20.70;73.50
75091;DHT22;63674;48.048;8.306;2023-06-05T07:47:45;20.90;71.40
75091;DHT22;63674;48.048;8.306;2023-06-05T07:50:14;21.40;75.40
75091;DHT22;63674;48.048;8.306;2023-06-05T07:52:43;21.60;58.80
75091;DHT22;63674;48.048;8.306;2023-06-05T07:55:12;21.80;67.40
75091;DHT22;63674;48.048;8.306;2023-06-05T07:57:40;22.10;65.10
75091;DHT22;63674;48.048;8.306;2023-06-05T08:00:10;22.40;62.00
75091;DHT22;63674;48.048;8.306;2023-06-05T08:02:41;22.60;46.60
75091;DHT22;63674;48.048;8.306;2023-06-05T08:05:12;22.30;52.90
75091;DHT22;63674;48.048;8.306;2023-06-05T08:07:42;22.50;52.10
75091;DHT22;63674;48.048;8.306;2023-06-05T08:10:11;22.40;47.30
75091;DHT22;63674;48.048;8.306;2023-06-05T08:12:40;22.30;55.80
75091;DHT22;63674;48.048;8.306;2023-06-05T08:15:09;22.30;50.00
75091;DHT22;63674;48.048;8.306;2023-06-05T08:17:38;22.40;42.80
75091;DHT22;63674;48.048;8.306;2023-06-05T08:20:08;22.70;50.10
75091;DHT22;63674;48.048;8.306;2023-06-05T08:22:41;22.90;47.70
75091;DHT22;63674;48.048;8.306;2023-06-05T08:25:09;23.00;43.90
75091;DHT22;63674;48.048;8.306;2023-06-05T08:27:38;23.00;45.20
75091;DHT22;63674;48.048;8.306;2023-06-05T08:30:07;22.90;38.20
75091;DHT22;63674;48.048;8.306;2023-06-05T08:32:36;22.30;40.90
75091;DHT22;63674;48.048;8.306;2023-06-05T08:35:07;21.80;44.00
75091;DHT22;63674;48.048;8.306;2023-06-05T08:37:37;21.60;43.10
75091;DHT22;63674;48.048;8.306;2023-06-05T08:40:08;22.10;46.50
75091;DHT22;63674;48.048;8.306;2023-06-05T08:42:39;22.80;46.90
75091;DHT22;63674;48.048;8.306;2023-06-05T08:45:11;23.20;44.70
75091;DHT22;63674;48.048;8.306;2023-06-05T08:47:40;23.30;43.60
75091;DHT22;63674;48.048;8.306;2023-06-05T08:50:11;23.40;39.30
75091;DHT22;63674;48.048;8.306;2023-06-05T08:52:42;23.30;38.80
75091;DHT22;63674;48.048;8.306;2023-06-05T08:55:14;23.60;40.80
75091;DHT22;63674;48.048;8.306;2023-06-05T08:57:43;23.90;40.00
75091;DHT22;63674;48.048;8.306;2023-06-05T09:00:12;23.90;37.00
75091;DHT22;63674;48.048;8.306;2023-06-05T09:02:44;24.30;40.20
75091;DHT22;63674;48.048;8.306;2023-06-05T09:05:14;24.60;43.00
75091;DHT22;63674;48.048;8.306;2023-06-05T09:07:44;24.60;39.80
75091;DHT22;63674;48.048;8.306;2023-06-05T09:10:25;24.30;40.00
75091;DHT22;63674;48.048;8.306;2023-06-05T09:13:00;24.30;39.00
75091;DHT22;63674;48.048;8.306;2023-06-05T09:15:33;24.30;39.50
75091;DHT22;63674;48.048;8.306;2023-06-05T09:18:06;24.10;39.60
75091;DHT22;63674;48.048;8.306;2023-06-05T09:20:37;24.30;36.60
75091;DHT22;63674;48.048;8.306;2023-06-05T09:23:24;23.90;37.40
75091;DHT22;63674;48.048;8.306;2023-06-05T09:25:58;24.00;36.90
75091;DHT22;63674;48.048;8.306;2023-06-05T09:28:29;24.20;36.60
75091;DHT22;63674;48.048;8.306;2023-06-05T09:30:59;24.40;37.20
75091;DHT22;63674;48.048;8.306;2023-06-05T09:33:29;24.50;35.00
75091;DHT22;63674;48.048;8.306;2023-06-05T09:36:07;24.50;34.80
75091;DHT22;63674;48.048;8.306;2023-06-05T09:38:37;24.10;34.80
75091;DHT22;63674;48.048;8.306;2023-06-05T09:41:09;23.10;34.20
75091;DHT22;63674;48.048;8.306;2023-06-05T09:43:39;21.80;40.70
75091;DHT22;63674;48.048;8.306;2023-06-05T09:46:09;21.70;41.50
75091;DHT22;63674;48.048;8.306;2023-06-05T09:48:39;22.20;44.60
75091;DHT22;63674;48.048;8.306;2023-06-05T09:51:12;22.60;41.80
75091;DHT22;63674;48.048;8.306;2023-06-05T09:53:44;23.20;43.00
75091;DHT22;63674;48.048;8.306;2023-06-05T09:56:15;23.50;39.80
75091;DHT22;63674;48.048;8.306;2023-06-05T09:58:46;23.10;40.10
75091;DHT22;63674;48.048;8.306;2023-06-05T10:01:17;22.70;40.80
75091;DHT22;63674;48.048;8.306;2023-06-05T10:04:02;23.20;37.00
75091;DHT22;63674;48.048;8.306;2023-06-05T10:06:35;23.20;38.90
75091;DHT22;63674;48.048;8.306;2023-06-05T10:09:06;23.50;39.50
75091;DHT22;63674;48.048;8.306;2023-06-05T10:11:38;23.80;37.30
75091;DHT22;63674;48.048;8.306;2023-06-05T10:14:09;23.70;38.40
75091;DHT22;63674;48.048;8.306;2023-06-05T10:16:38;23.50;39.30
75091;DHT22;63674;48.048;8.306;2023-06-05T10:19:07;23.20;37.90
75091;DHT22;63674;48.048;8.306;2023-06-05T10:21:37;23.40;38.70
75091;DHT22;63674;48.048;8.306;2023-06-05T10:24:09;23.60;41.40
75091;DHT22;63674;48.048;8.306;2023-06-05T10:33:25;24.20;39.20
75091;DHT22;63674;48.048;8.306;2023-06-05T10:36:09;24.00;39.00
75091;DHT22;63674;48.048;8.306;2023-06-05T10:38:43;23.30;41.20
75091;DHT22;63674;48.048;8.306;2023-06-05T10:41:12;22.70;41.80
75091;DHT22;63674;48.048;8.306;2023-06-05T10:43:51;22.90;43.60
75091;DHT22;63674;48.048;8.306;2023-06-05T10:46:33;22.90;44.70
75091;DHT22;63674;48.048;8.306;2023-06-05T10:49:12;23.60;42.30
75091;DHT22;63674;48.048;8.306;2023-06-05T10:51:44;24.10;42.80
75091;DHT22;63674;48.048;8.306;2023-06-05T10:54:14;24.30;42.00
75091;DHT22;63674;48.048;8.306;2023-06-05T10:56:57;24.50;41.40
75091;DHT22;63674;48.048;8.306;2023-06-05T10:59:31;24.50;38.50
75091;DHT22;63674;48.048;8.306;2023-06-05T11:02:22;24.80;42.70
75091;DHT22;63674;48.048;8.306;2023-06-05T11:05:08;24.50;39.40
75091;DHT22;63674;48.048;8.306;2023-06-05T11:07:39;24.20;38.70
75091;DHT22;63674;48.048;8.306;2023-06-05T11:10:11;24.30;40.60
75091;DHT22;63674;48.048;8.306;2023-06-05T11:12:54;23.80;39.60
75091;DHT22;63674;48.048;8.306;2023-06-05T11:15:40;23.50;40.40
75091;DHT22;63674;48.048;8.306;2023-06-05T11:18:27;23.10;40.10
75091;DHT22;63674;48.048;8.306;2023-06-05T11:21:00;22.60;42.70
75091;DHT22;63674;48.048;8.306;2023-06-05T11:23:29;22.50;43.20
75091;DHT22;63674;48.048;8.306;2023-06-05T11:29:15;22.30;45.30
75091;DHT22;63674;48.048;8.306;2023-06-05T11:31:46;22.90;47.50
75091;DHT22;63674;48.048;8.306;2023-06-05T11:34:15;23.50;43.90
75091;DHT22;63674;48.048;8.306;2023-06-05T11:36:44;23.30;41.40
75091;DHT22;63674;48.048;8.306;2023-06-05T11:39:13;23.70;42.00
75091;DHT22;63674;48.048;8.306;2023-06-05T11:41:45;24.10;43.30
75091;DHT22;63674;48.048;8.306;2023-06-05T11:44:15;24.60;44.30
75091;DHT22;63674;48.048;8.306;2023-06-05T11:47:00;24.80;42.30
75091;DHT22;63674;48.048;8.306;2023-06-05T11:49:30;24.30;37.40
75091;DHT22;63674;48.048;8.306;2023-06-05T11:51:58;24.30;41.20
75091;DHT22;63674;48.048;8.306;2023-06-05T11:54:29;24.50;42.50
75091;DHT22;63674;48.048;8.306;2023-06-05T11:57:02;24.90;42.50
75091;DHT22;63674;48.048;8.306;2023-06-05T11:59:37;24.80;39.10
75091;DHT22;63674;48.048;8.306;2023-06-05T12:02:08;24.50;40.80
75091;DHT22;63674;48.048;8.306;2023-06-05T12:04:39;24.60;42.20
75091;DHT22;63674;48.048;8.306;2023-06-05T12:07:09;24.60;40.70
75091;DHT22;63674;48.048;8.306;2023-06-05T12:09:39;24.10;41.00
75091;DHT22;63674;48.048;8.306;2023-06-05T12:12:08;23.50;41.00
75091;DHT22;63674;48.048;8.306;2023-06-05T12:14:37;23.40;43.10
75091;DHT22;63674;48.048;8.306;2023-06-05T12:17:11;23.80;43.40
75091;DHT22;63674;48.048;8.306;2023-06-05T12:19:40;24.10;42.30
75091;DHT22;63674;48.048;8.306;2023-06-05T12:22:09;24.30;38.40
75091;DHT22;63674;48.048;8.306;2023-06-05T12:24:37;24.40;42.40
75091;DHT22;63674;48.048;8.306;2023-06-05T12:27:06;24.40;39.40
75091;DHT22;63674;48.048;8.306;2023-06-05T12:29:36;24.70;39.70
75091;DHT22;63674;48.048;8.306;2023-06-05T12:32:23;25.20;42.10
75091;DHT22;63674;48.048;8.306;2023-06-05T12:34:53;25.40;39.20
75091;DHT22;63674;48.048;8.306;2023-06-05T12:37:34;25.40;40.40
75091;DHT22;63674;48.048;8.306;2023-06-05T12:40:06;25.40;38.80
75091;DHT22;63674;48.048;8.306;2023-06-05T12:42:39;25.50;39.30
75091;DHT22;63674;48.048;8.306;2023-06-05T12:45:11;25.30;38.40
75091;DHT22;63674;48.048;8.306;2023-06-05T12:47:42;25.10;39.10
75091;DHT22;63674;48.048;8.306;2023-06-05T12:50:13;25.10;36.90
75091;DHT22;63674;48.048;8.306;2023-06-05T12:52:42;24.80;39.60
75091;DHT22;63674;48.048;8.306;2023-06-05T12:55:11;24.20;40.20
75091;DHT22;63674;48.048;8.306;2023-06-05T12:57:40;23.90;42.10
75091;DHT22;63674;48.048;8.306;2023-06-05T13:00:09;23.70;43.70
75091;DHT22;63674;48.048;8.306;2023-06-05T13:02:43;23.50;43.30
75091;DHT22;63674;48.048;8.306;2023-06-05T13:05:13;23.70;45.30
75091;DHT22;63674;48.048;8.306;2023-06-05T13:07:42;24.20;45.00
75091;DHT22;63674;48.048;8.306;2023-06-05T13:10:12;24.50;42.80
75091;DHT22;63674;48.048;8.306;2023-06-05T13:12:41;24.60;40.40
75091;DHT22;63674;48.048;8.306;2023-06-05T13:15:10;24.10;40.40
75091;DHT22;63674;48.048;8.306;2023-06-05T13:17:39;23.70;39.40
75091;DHT22;63674;48.048;8.306;2023-06-05T13:20:09;23.10;42.10
75091;DHT22;63674;48.048;8.306;2023-06-05T13:22:40;23.50;43.90
75091;DHT22;63674;48.048;8.306;2023-06-05T13:25:09;23.50;42.30
75091;DHT22;63674;48.048;8.306;2023-06-05T13:27:39;23.70;43.40
75091;DHT22;63674;48.048;8.306;2023-06-05T13:30:08;23.90;44.10
75091;DHT22;63674;48.048;8.306;2023-06-05T13:32:38;24.10;43.00
75091;DHT22;63674;48.048;8.306;2023-06-05T13:35:10;24.10;45.90
75091;DHT22;63674;48.048;8.306;2023-06-05T13:37:39;24.20;43.40
75091;DHT22;63674;48.048;8.306;2023-06-05T13:40:08;24.00;41.10
75091;DHT22;63674;48.048;8.306;2023-06-05T13:42:39;24.10;43.70
75091;DHT22;63674;48.048;8.306;2023-06-05T13:45:08;24.10;42.80
75091;DHT22;63674;48.048;8.306;2023-06-05T13:47:37;23.60;42.90
75091;DHT22;63674;48.048;8.306;2023-06-05T13:50:08;23.40;46.10
75091;DHT22;63674;48.048;8.306;2023-06-05T13:52:37;23.90;48.40
75091;DHT22;63674;48.048;8.306;2023-06-05T13:55:07;24.30;45.60
75091;DHT22;63674;48.048;8.306;2023-06-05T13:57:35;24.20;43.50
75091;DHT22;63674;48.048;8.306;2023-06-05T14:00:05;23.90;42.30
75091;DHT22;63674;48.048;8.306;2023-06-05T14:02:35;23.80;41.80
75091;DHT22;63674;48.048;8.306;2023-06-05T14:05:04;24.00;45.70
75091;DHT22;63674;48.048;8.306;2023-06-05T14:07:36;24.20;42.30
75091;DHT22;63674;48.048;8.306;2023-06-05T14:10:17;24.10;43.60
75091;DHT22;63674;48.048;8.306;2023-06-05T14:12:46;23.90;43.20
75091;DHT22;63674;48.048;8.306;2023-06-05T14:15:14;23.20;43.60
75091;DHT22;63674;48.048;8.306;2023-06-05T14:17:45;22.80;45.70
75091;DHT22;63674;48.048;8.306;2023-06-05T14:20:15;22.40;47.40
75091;DHT22;63674;48.048;8.306;2023-06-05T14:22:45;22.00;47.70
75091;DHT22;63674;48.048;8.306;2023-06-05T14:25:13;21.90;51.20
75091;DHT22;63674;48.048;8.306;2023-06-05T14:27:42;21.80;52.90
75091;DHT22;63674;48.048;8.306;2023-06-05T14:30:12;21.80;51.50
75091;DHT22;63674;48.048;8.306;2023-06-05T14:32:41;21.70;51.40
75091;DHT22;63674;48.048;8.306;2023-06-05T14:35:10;21.60;54.30
75091;DHT22;63674;48.048;8.306;2023-06-05T14:37:39;21.60;52.50
75091;DHT22;63674;48.048;8.306;2023-06-05T14:40:10;21.60;59.10
75091;DHT22;63674;48.048;8.306;2023-06-05T14:42:39;21.50;58.70
75091;DHT22;63674;48.048;8.306;2023-06-05T14:45:09;21.60;59.00
75091;DHT22;63674;48.048;8.306;2023-06-05T14:47:38;21.70;60.30
75091;DHT22;63674;48.048;8.306;2023-06-05T14:50:07;21.60;53.50
75091;DHT22;63674;48.048;8.306;2023-06-05T14:52:37;21.70;53.00
75091;DHT22;63674;48.048;8.306;2023-06-05T14:55:06;22.00;52.40
75091;DHT22;63674;48.048;8.306;2023-06-05T14:57:36;22.00;53.10
75091;DHT22;63674;48.048;8.306;2023-06-05T15:00:07;21.90;58.70
75091;DHT22;63674;48.048;8.306;2023-06-05T15:02:37;21.80;56.50
75091;DHT22;63674;48.048;8.306;2023-06-05T15:05:06;21.80;54.00
75091;DHT22;63674;48.048;8.306;2023-06-05T15:07:36;21.80;47.80
75091;DHT22;63674;48.048;8.306;2023-06-05T15:10:06;22.00;51.40
75091;DHT22;63674;48.048;8.306;2023-06-05T15:12:37;22.40;53.10
75091;DHT22;63674;48.048;8.306;2023-06-05T15:15:07;22.70;51.80
75091;DHT22;63674;48.048;8.306;2023-06-05T15:17:47;22.90;50.10
75091;DHT22;63674;48.048;8.306;2023-06-05T15:20:16;23.10;49.50
75091;DHT22;63674;48.048;8.306;2023-06-05T15:22:47;23.00;44.90
75091;DHT22;63674;48.048;8.306;2023-06-05T15:25:33;22.90;44.80
75091;DHT22;63674;48.048;8.306;2023-06-05T15:28:03;22.60;48.60
75091;DHT22;63674;48.048;8.306;2023-06-05T15:30:32;22.60;49.50
75091;DHT22;63674;48.048;8.306;2023-06-05T15:33:00;22.60;46.80
75091;DHT22;63674;48.048;8.306;2023-06-05T15:35:30;22.60;46.00
75091;DHT22;63674;48.048;8.306;2023-06-05T15:37:59;22.40;42.90
75091;DHT22;63674;48.048;8.306;2023-06-05T15:40:27;22.30;44.50
75091;DHT22;63674;48.048;8.306;2023-06-05T15:43:05;22.30;49.80
75091;DHT22;63674;48.048;8.306;2023-06-05T15:45:36;22.30;48.10
75091;DHT22;63674;48.048;8.306;2023-06-05T15:48:05;22.10;49.00
75091;DHT22;63674;48.048;8.306;2023-06-05T15:50:34;21.80;51.20
75091;DHT22;63674;48.048;8.306;2023-06-05T15:53:03;21.60;53.70
75091;DHT22;63674;48.048;8.306;2023-06-05T15:55:31;21.40;51.00
75091;DHT22;63674;48.048;8.306;2023-06-05T15:58:07;21.30;54.20
75091;DHT22;63674;48.048;8.306;2023-06-05T16:00:36;21.10;54.10
75091;DHT22;63674;48.048;8.306;2023-06-05T16:03:05;21.10;54.90
75091;DHT22;63674;48.048;8.306;2023-06-05T16:05:34;21.20;54.90
75091;DHT22;63674;48.048;8.306;2023-06-05T16:08:03;21.20;54.40
75091;DHT22;63674;48.048;8.306;2023-06-05T16:10:32;21.30;54.80